EmailTwitter


Observations de surface / France / LFMP (07747)

Régions: Québec | Canada | États-Unis | Europe | France | UK | Ailleurs
Station
Affichage
Infos & localisation pour LFMP (07747) | Aide pour décoder les METARs

Observations prises le 2020-07-10 à 00H30 UTC à PERPIGNAN/RIVESA, FR (LFMP)

Température: 24.0 Celsius

Point de rosée: 16.0 Celsius

Humidité relative: 61%

Indice Humidex: 29.

Vents: Sud-ouest à 9 km/h ou 5 noeuds.

Pression au niveau moyen de la mer: 101.50 kilopascals.

Observation METAR:

LFMP 100030Z AUTO 24005KT CAVOK 24/16 Q1015=